createdAt,value
2019-02-08T00:01:58.659Z,0.80
2019-02-08T00:04:29.509Z,0.80
2019-02-08T00:07:00.098Z,0.80
2019-02-08T00:09:30.999Z,0.70
2019-02-08T00:12:01.703Z,0.70
2019-02-08T00:14:32.597Z,0.80
2019-02-08T00:17:03.109Z,0.80
2019-02-08T00:19:33.824Z,0.80
2019-02-08T00:22:05.855Z,0.90
2019-02-08T00:24:36.768Z,0.90
2019-02-08T00:27:07.824Z,1.10
2019-02-08T00:29:38.492Z,1.10
2019-02-08T00:32:09.117Z,1.10
2019-02-08T00:34:39.839Z,1.00
2019-02-08T00:37:10.579Z,1.00
2019-02-08T00:39:41.164Z,1.00
2019-02-08T00:42:12.054Z,0.90
2019-02-08T00:44:42.594Z,0.90
2019-02-08T00:47:13.165Z,0.80
2019-02-08T00:49:43.895Z,0.90
2019-02-08T00:52:14.850Z,0.90
2019-02-08T00:54:45.393Z,0.60
2019-02-08T00:57:16.029Z,0.60
2019-02-08T00:59:46.659Z,0.30
2019-02-08T01:02:17.314Z,0.00
2019-02-08T01:04:48.699Z,-0.30
2019-02-08T01:07:19.441Z,-0.30
2019-02-08T01:09:50.234Z,-0.20
2019-02-08T01:12:21.089Z,-0.10
2019-02-08T01:14:51.969Z,-0.30
2019-02-08T01:17:22.654Z,-0.50
2019-02-08T01:19:53.304Z,-0.30
2019-02-08T01:22:23.859Z,-0.30
2019-02-08T01:24:54.414Z,-0.40
2019-02-08T01:27:25.110Z,-0.50
2019-02-08T01:29:55.715Z,-0.30
2019-02-08T01:32:26.364Z,-0.30
2019-02-08T01:34:57.094Z,-0.30
2019-02-08T01:37:27.688Z,-0.40
2019-02-08T01:39:58.249Z,-0.40
2019-02-08T01:42:28.898Z,-0.40
2019-02-08T01:44:59.579Z,-0.30
2019-02-08T01:47:30.164Z,-0.20
2019-02-08T01:50:00.938Z,-0.20
2019-02-08T01:52:31.623Z,-0.20
2019-02-08T01:55:02.235Z,-0.10
2019-02-08T01:57:32.848Z,-0.20
2019-02-08T02:00:03.609Z,-0.20
2019-02-08T02:02:34.123Z,-0.20
2019-02-08T02:05:04.874Z,-0.30
2019-02-08T02:07:35.413Z,-0.20
2019-02-08T02:10:07.494Z,-0.10
2019-02-08T02:12:38.059Z,-0.10
2019-02-08T02:15:09.674Z,0.00
2019-02-08T02:17:40.384Z,0.00
2019-02-08T02:20:11.968Z,0.00
2019-02-08T02:22:42.469Z,0.10
2019-02-08T02:25:13.109Z,0.10
2019-02-08T02:27:43.613Z,0.20
2019-02-08T02:30:17.239Z,0.30
2019-02-08T02:32:48.134Z,0.40
2019-02-08T02:35:18.683Z,0.20
2019-02-08T02:37:49.335Z,0.20
2019-02-08T02:40:20.447Z,0.10
2019-02-08T02:42:51.394Z,0.10
2019-02-08T02:45:26.981Z,0.20
2019-02-08T02:47:57.734Z,0.20
2019-02-08T02:50:28.474Z,0.10
2019-02-08T02:52:59.118Z,0.00
2019-02-08T02:55:30.189Z,-0.10
2019-02-08T02:58:00.778Z,0.00
2019-02-08T03:00:34.097Z,0.00
2019-02-08T03:03:04.839Z,-0.10
2019-02-08T03:05:35.604Z,-0.20
2019-02-08T03:08:07.509Z,-0.30
2019-02-08T03:10:38.173Z,-0.40
2019-02-08T03:13:09.335Z,-0.40
2019-02-08T03:15:40.082Z,-0.50
2019-02-08T03:18:10.718Z,-0.40
2019-02-08T03:20:41.315Z,-0.40
2019-02-08T03:23:12.034Z,-0.40
2019-02-08T03:26:15.439Z,-0.30
2019-02-08T03:29:04.019Z,-0.40
2019-02-08T03:31:34.679Z,-0.70
2019-02-08T03:34:05.247Z,-0.80
2019-02-08T03:36:35.718Z,-0.70
2019-02-08T03:39:09.003Z,-0.60
2019-02-08T03:41:39.610Z,-0.50
2019-02-08T03:44:10.335Z,-0.50
2019-02-08T03:46:40.897Z,-0.70
2019-02-08T03:49:11.482Z,-0.60
2019-02-08T03:51:42.064Z,-0.60
2019-02-08T03:54:12.634Z,-0.60
2019-02-08T03:56:43.223Z,-0.60
2019-02-08T03:59:13.861Z,-0.70
2019-02-08T04:01:44.400Z,-0.60
2019-02-08T04:04:41.974Z,-0.70
2019-02-08T04:07:12.580Z,-0.60
2019-02-08T04:09:43.238Z,-0.50
2019-02-08T04:12:13.874Z,-0.50
2019-02-08T04:14:44.546Z,-0.40
2019-02-08T04:17:15.209Z,-0.50
2019-02-08T04:19:45.744Z,-0.50
2019-02-08T04:22:16.385Z,-0.50
2019-02-08T04:24:47.060Z,-0.50
2019-02-08T04:27:17.743Z,-0.40
2019-02-08T04:29:48.459Z,-0.40
2019-02-08T04:32:19.365Z,-0.40
2019-02-08T04:34:49.899Z,-0.50
2019-02-08T04:37:20.572Z,-0.50
2019-02-08T04:39:51.194Z,-0.60
2019-02-08T04:42:22.194Z,-0.70
2019-02-08T04:44:52.852Z,-0.70
2019-02-08T04:47:24.089Z,-0.70
2019-02-08T04:49:54.673Z,-0.80
2019-02-08T04:52:25.200Z,-0.90
2019-02-08T04:54:55.998Z,-1.00
2019-02-08T04:57:26.589Z,-1.00
2019-02-08T04:59:57.139Z,-1.10
2019-02-08T05:02:27.806Z,-1.00
2019-02-08T05:04:58.433Z,-1.10
2019-02-08T05:07:29.068Z,-1.00
2019-02-08T05:09:59.697Z,-1.00
2019-02-08T05:12:31.088Z,-0.90
2019-02-08T05:15:03.168Z,-0.70
2019-02-08T05:17:33.923Z,-0.70
2019-02-08T05:20:04.759Z,-0.70
2019-02-08T05:22:35.509Z,-0.70
2019-02-08T05:25:06.498Z,-0.70
2019-02-08T05:27:37.019Z,-0.80
2019-02-08T05:30:17.058Z,-0.90
2019-02-08T05:32:47.623Z,-1.00
2019-02-08T05:35:18.400Z,-1.00
2019-02-08T05:37:49.040Z,-1.00
2019-02-08T05:40:19.955Z,-1.00
2019-02-08T05:42:50.701Z,-1.10
2019-02-08T05:45:21.793Z,-1.20
2019-02-08T05:47:52.418Z,-1.20
2019-02-08T05:50:24.298Z,-1.30
2019-02-08T05:52:55.123Z,-1.30
2019-02-08T05:55:27.388Z,-1.10
2019-02-08T05:57:58.018Z,-1.00
2019-02-08T06:01:00.149Z,-1.00
2019-02-08T06:03:30.690Z,-1.00
2019-02-08T06:06:01.284Z,-1.20
2019-02-08T06:08:32.072Z,-1.40
2019-02-08T06:11:02.703Z,-1.70
2019-02-08T06:13:33.389Z,-1.80
2019-02-08T06:16:04.069Z,-1.80
2019-02-08T06:18:34.724Z,-1.80
2019-02-08T06:21:05.449Z,-1.80
2019-02-08T06:23:35.999Z,-1.80
2019-02-08T06:26:06.780Z,-1.90
2019-02-08T06:28:37.639Z,-1.90
2019-02-08T06:31:08.210Z,-2.00
2019-02-08T06:33:38.818Z,-2.30
2019-02-08T06:36:09.503Z,-2.20
2019-02-08T06:38:39.939Z,-2.20
2019-02-08T06:41:10.573Z,-2.20
2019-02-08T06:43:41.214Z,-2.10
2019-02-08T06:46:11.816Z,-2.00
2019-02-08T06:48:42.363Z,-1.90
2019-02-08T06:51:13.179Z,-1.70
2019-02-08T06:53:43.789Z,-1.90
2019-02-08T06:56:32.058Z,-1.90
2019-02-08T06:59:24.483Z,-2.00
2019-02-08T07:02:12.744Z,-1.90
2019-02-08T07:05:04.943Z,-1.80
2019-02-08T07:07:42.993Z,-1.70
2019-02-08T07:10:32.988Z,-1.60
2019-02-08T07:13:22.274Z,-1.50
2019-02-08T07:16:11.619Z,-1.50
2019-02-08T07:18:56.818Z,-1.50
2019-02-08T07:21:46.061Z,-1.50
2019-02-08T07:24:32.144Z,-1.30
2019-02-08T07:27:10.578Z,-1.30
2019-02-08T07:29:58.818Z,-1.20
2019-02-08T07:32:47.963Z,-1.10
2019-02-08T07:35:36.341Z,-1.00
2019-02-08T07:38:28.972Z,-1.00
2019-02-08T07:41:37.194Z,-1.00
2019-02-08T07:44:52.364Z,-0.90
2019-02-08T07:47:44.788Z,-0.70
2019-02-08T07:50:34.489Z,-0.60
2019-02-08T07:53:33.688Z,-0.60
2019-02-08T07:56:20.088Z,-0.50
2019-02-08T07:59:20.518Z,-0.30
2019-02-08T08:02:14.373Z,-0.20
2019-02-08T08:05:19.244Z,0.10
2019-02-08T08:08:20.569Z,0.30
2019-02-08T08:11:25.269Z,0.50
2019-02-08T08:14:05.230Z,0.70
2019-02-08T08:16:53.494Z,0.80
2019-02-08T08:19:50.054Z,1.00
2019-02-08T08:22:36.979Z,1.10
2019-02-08T08:25:36.300Z,1.20
2019-02-08T08:28:28.739Z,1.30
2019-02-08T08:31:15.599Z,1.40
2019-02-08T08:33:55.138Z,1.50
2019-02-08T08:37:03.318Z,1.50
2019-02-08T08:40:00.109Z,1.70
2019-02-08T08:42:55.799Z,1.70
2019-02-08T08:46:02.409Z,1.80
2019-02-08T08:48:57.413Z,1.90
2019-02-08T08:51:59.629Z,2.10
2019-02-08T08:55:28.219Z,2.20
2019-02-08T08:58:50.379Z,2.20
2019-02-08T09:01:45.159Z,2.30
2019-02-08T09:04:50.770Z,2.30
2019-02-08T09:08:00.024Z,2.30
2019-02-08T09:11:04.974Z,2.40
2019-02-08T09:13:57.920Z,2.50
2019-02-08T09:17:12.153Z,2.60
2019-02-08T09:20:41.763Z,2.90
2019-02-08T09:23:50.598Z,3.20
2019-02-08T09:26:52.019Z,3.20
2019-02-08T09:30:06.733Z,3.40
2019-02-08T09:32:51.389Z,3.50
2019-02-08T09:36:03.680Z,3.60
2019-02-08T09:39:17.578Z,3.60
2019-02-08T09:42:26.349Z,3.80
2019-02-08T09:45:18.363Z,3.90
2019-02-08T09:48:20.879Z,3.90
2019-02-08T09:51:31.093Z,4.10
2019-02-08T09:54:25.133Z,4.20
2019-02-08T09:57:31.493Z,4.50
2019-02-08T10:00:45.254Z,4.70
2019-02-08T10:04:05.205Z,4.90
2019-02-08T10:07:10.983Z,5.00
2019-02-08T10:10:37.274Z,5.00
2019-02-08T10:13:58.653Z,5.20
2019-02-08T10:17:11.733Z,5.30
2019-02-08T10:20:18.189Z,5.40
2019-02-08T10:23:50.524Z,5.60
2019-02-08T10:26:47.404Z,5.50
2019-02-08T10:29:52.044Z,5.70
2019-02-08T10:33:17.318Z,5.90
2019-02-08T10:36:37.204Z,6.00
2019-02-08T10:39:40.383Z,6.10
2019-02-08T10:42:42.894Z,6.50
2019-02-08T10:45:55.654Z,6.60
2019-02-08T10:49:28.143Z,6.80
2019-02-08T10:52:35.138Z,7.00
2019-02-08T10:55:52.273Z,7.10
2019-02-08T10:59:01.438Z,7.10
2019-02-08T11:02:30.794Z,7.10
2019-02-08T11:05:53.134Z,7.10
2019-02-08T11:09:09.375Z,7.20
2019-02-08T11:12:41.823Z,7.30
2019-02-08T11:15:51.269Z,7.30
2019-02-08T11:19:24.054Z,7.50
2019-02-08T11:21:55.319Z,7.50
2019-02-08T11:24:27.379Z,7.60
2019-02-08T11:27:00.026Z,7.90
2019-02-08T11:29:30.835Z,7.90
2019-02-08T11:32:01.479Z,8.00
2019-02-08T11:34:32.584Z,8.20
2019-02-08T11:37:03.403Z,8.00
2019-02-08T11:39:34.708Z,8.30
2019-02-08T11:42:05.724Z,8.50
2019-02-08T11:44:36.634Z,8.70
2019-02-08T11:47:07.414Z,8.70
2019-02-08T11:49:39.229Z,8.60
2019-02-08T11:52:09.919Z,8.80
2019-02-08T11:54:40.616Z,8.90
2019-02-08T11:57:13.369Z,8.80
2019-02-08T11:59:44.323Z,8.80
2019-02-08T12:02:14.918Z,9.10
2019-02-08T12:04:46.280Z,8.80
2019-02-08T12:07:17.194Z,9.00
2019-02-08T12:09:48.134Z,9.10
2019-02-08T12:12:18.819Z,9.20
2019-02-08T12:14:49.399Z,9.10
2019-02-08T12:17:20.036Z,9.30
2019-02-08T12:19:50.914Z,9.30
2019-02-08T12:22:21.620Z,9.30
2019-02-08T12:24:52.630Z,9.30
2019-02-08T12:27:23.381Z,9.30
2019-02-08T12:29:53.985Z,9.60
2019-02-08T12:32:24.624Z,9.90
2019-02-08T12:34:55.339Z,10.10
2019-02-08T12:37:25.943Z,9.60
2019-02-08T12:39:56.509Z,9.40
2019-02-08T12:42:27.914Z,9.30
2019-02-08T12:44:58.634Z,9.50
2019-02-08T12:47:29.270Z,9.80
2019-02-08T12:50:00.175Z,9.60
2019-02-08T12:52:31.064Z,9.60
2019-02-08T12:55:01.642Z,9.70
2019-02-08T12:57:32.229Z,10.10
2019-02-08T13:00:02.640Z,10.00
2019-02-08T13:02:33.784Z,10.00
2019-02-08T13:05:05.339Z,9.80
2019-02-08T13:07:36.129Z,9.90
2019-02-08T13:10:09.739Z,9.90
2019-02-08T13:12:40.464Z,10.00
2019-02-08T13:15:12.114Z,10.10
2019-02-08T13:17:42.732Z,10.30
2019-02-08T13:20:15.709Z,10.50
2019-02-08T13:22:47.096Z,10.40
2019-02-08T13:25:18.449Z,10.40
2019-02-08T13:27:49.599Z,10.40
2019-02-08T13:30:22.963Z,10.60
2019-02-08T13:32:53.729Z,10.50
2019-02-08T13:35:24.669Z,10.90
2019-02-08T13:37:55.564Z,11.10
2019-02-08T13:40:25.829Z,10.90
2019-02-08T13:42:56.539Z,10.90
2019-02-08T13:45:28.014Z,11.10
2019-02-08T13:47:58.654Z,11.10
2019-02-08T13:50:29.896Z,11.40
2019-02-08T13:53:00.659Z,11.40
2019-02-08T13:55:31.485Z,11.50
2019-02-08T13:58:02.355Z,12.10
2019-02-08T14:00:35.160Z,12.00
2019-02-08T14:03:06.194Z,12.10
2019-02-08T14:05:37.039Z,12.60
2019-02-08T14:08:08.219Z,12.90
2019-02-08T14:10:39.274Z,12.70
2019-02-08T14:13:10.314Z,12.20
2019-02-08T14:15:41.629Z,12.60
2019-02-08T14:18:12.494Z,13.10
2019-02-08T14:20:43.423Z,13.40
2019-02-08T14:23:14.750Z,13.10
2019-02-08T14:25:45.335Z,12.70
2019-02-08T14:28:16.154Z,12.20
2019-02-08T14:30:47.325Z,12.20
2019-02-08T14:33:17.994Z,12.50
2019-02-08T14:35:48.699Z,12.70
2019-02-08T14:38:22.494Z,12.80
2019-02-08T14:40:53.164Z,12.90
2019-02-08T14:43:23.849Z,13.00
2019-02-08T14:45:54.569Z,13.20
2019-02-08T14:48:25.209Z,13.20
2019-02-08T14:50:55.956Z,12.40
2019-02-08T14:53:27.746Z,12.60
2019-02-08T14:55:58.474Z,13.00
2019-02-08T14:58:29.294Z,13.40
2019-02-08T15:00:59.944Z,13.20
2019-02-08T15:03:30.611Z,12.70
2019-02-08T15:06:01.479Z,12.30
2019-02-08T15:08:32.344Z,12.50
2019-02-08T15:11:03.004Z,12.80
2019-02-08T15:13:33.688Z,12.60
2019-02-08T15:16:05.085Z,12.30
2019-02-08T15:18:35.876Z,12.50
2019-02-08T15:21:06.664Z,12.40
2019-02-08T15:23:37.499Z,12.10
2019-02-08T15:26:08.160Z,11.60
2019-02-08T15:28:39.199Z,11.50
2019-02-08T15:31:10.019Z,11.70
2019-02-08T15:33:40.789Z,12.00
2019-02-08T15:36:11.784Z,12.10
2019-02-08T15:38:44.945Z,12.40
2019-02-08T15:41:15.840Z,12.80
2019-02-08T15:43:47.084Z,12.90
2019-02-08T15:46:18.243Z,12.90
2019-02-08T15:48:49.144Z,12.80
2019-02-08T15:51:20.804Z,12.50
2019-02-08T15:53:51.903Z,12.40
2019-02-08T15:56:22.721Z,12.30
2019-02-08T15:58:53.899Z,12.10
2019-02-08T16:01:24.681Z,11.80
2019-02-08T16:03:55.484Z,11.60
2019-02-08T16:06:26.219Z,11.40
2019-02-08T16:08:57.124Z,11.60
2019-02-08T16:11:27.844Z,11.60
2019-02-08T16:13:58.944Z,11.30
2019-02-08T16:16:30.089Z,11.00
2019-02-08T16:19:00.884Z,10.80
2019-02-08T16:21:32.118Z,10.60
2019-02-08T16:24:03.089Z,10.20
2019-02-08T16:26:33.729Z,10.00
2019-02-08T16:29:04.519Z,9.80
2019-02-08T16:31:35.124Z,9.80
2019-02-08T16:34:05.890Z,9.50
2019-02-08T16:36:36.604Z,9.20
2019-02-08T16:39:11.193Z,9.10
2019-02-08T16:41:42.104Z,9.10
2019-02-08T16:44:12.800Z,9.00
2019-02-08T16:46:43.721Z,8.80
2019-02-08T16:49:14.689Z,8.60
2019-02-08T16:51:45.830Z,8.40
2019-02-08T16:54:17.174Z,8.20
2019-02-08T16:56:48.326Z,8.20
2019-02-08T16:59:19.659Z,8.00
2019-02-08T17:01:50.594Z,7.80
2019-02-08T17:04:21.875Z,7.70
2019-02-08T17:06:53.454Z,7.60
2019-02-08T17:09:25.029Z,7.40
2019-02-08T17:11:56.302Z,7.30
2019-02-08T17:14:27.194Z,7.30
2019-02-08T17:16:58.209Z,7.10
2019-02-08T17:19:29.153Z,6.90
2019-02-08T17:22:00.014Z,6.70
2019-02-08T17:24:30.739Z,6.60
2019-02-08T17:27:01.335Z,6.50
2019-02-08T17:29:32.371Z,6.50
2019-02-08T17:32:03.020Z,6.50
2019-02-08T17:34:33.953Z,6.50
2019-02-08T17:37:04.774Z,6.50
2019-02-08T17:39:36.318Z,6.40
2019-02-08T17:42:07.275Z,6.30
2019-02-08T17:44:38.529Z,6.20
2019-02-08T17:47:09.299Z,6.30
2019-02-08T17:49:40.035Z,6.20
2019-02-08T17:52:11.106Z,6.10
2019-02-08T17:54:42.050Z,6.00
2019-02-08T17:57:12.769Z,5.90
2019-02-08T17:59:43.455Z,5.70
2019-02-08T18:02:14.174Z,5.70
2019-02-08T18:04:45.139Z,5.70
2019-02-08T18:07:16.299Z,5.60
2019-02-08T18:09:47.204Z,5.40
2019-02-08T18:12:18.404Z,5.30
2019-02-08T18:14:49.045Z,5.10
2019-02-08T18:17:20.134Z,5.00
2019-02-08T18:19:50.964Z,5.00
2019-02-08T18:22:21.811Z,5.10
2019-02-08T18:24:52.549Z,5.00
2019-02-08T18:27:23.604Z,5.00
2019-02-08T18:29:54.844Z,5.00
2019-02-08T18:32:26.099Z,5.10
2019-02-08T18:34:58.472Z,5.00
2019-02-08T18:37:30.764Z,4.70
2019-02-08T18:40:02.052Z,4.50
2019-02-08T18:42:35.694Z,4.60
2019-02-08T18:45:07.426Z,4.80
2019-02-08T18:47:38.094Z,4.70
2019-02-08T18:50:14.184Z,4.60
2019-02-08T18:52:44.936Z,4.60
2019-02-08T18:55:15.674Z,4.50
2019-02-08T18:57:46.794Z,4.50
2019-02-08T19:00:20.529Z,4.40
2019-02-08T19:02:51.864Z,4.00
2019-02-08T19:05:23.084Z,3.70
2019-02-08T19:07:53.859Z,3.70
2019-02-08T19:10:24.759Z,3.70
2019-02-08T19:12:55.504Z,3.70
2019-02-08T19:15:26.615Z,3.70
2019-02-08T19:17:57.399Z,3.80
2019-02-08T19:20:28.325Z,4.00
2019-02-08T19:22:59.451Z,4.10
2019-02-08T19:25:35.226Z,4.30
2019-02-08T19:28:07.030Z,4.40
2019-02-08T19:30:38.944Z,4.40
2019-02-08T19:33:10.372Z,4.40
2019-02-08T19:35:41.330Z,4.40
2019-02-08T19:38:12.890Z,4.30
2019-02-08T19:40:45.381Z,4.40
2019-02-08T19:43:16.488Z,4.40
2019-02-08T19:45:47.166Z,4.50
2019-02-08T19:48:18.199Z,4.40
2019-02-08T19:50:49.700Z,4.30
2019-02-08T19:53:20.605Z,4.10
2019-02-08T19:55:51.769Z,4.20
2019-02-08T19:58:22.494Z,4.20
2019-02-08T20:00:53.814Z,4.30
2019-02-08T20:03:24.455Z,4.30
2019-02-08T20:05:55.194Z,4.30
2019-02-08T20:08:26.170Z,4.30
2019-02-08T20:10:57.479Z,4.40
2019-02-08T20:13:28.346Z,4.30
2019-02-08T20:16:00.224Z,4.30
2019-02-08T20:18:30.939Z,4.30
2019-02-08T20:21:01.899Z,4.40
2019-02-08T20:23:32.699Z,4.30
2019-02-08T20:26:04.169Z,4.20
2019-02-08T20:28:42.046Z,4.20
2019-02-08T20:31:07.905Z,4.30
2019-02-08T20:33:39.279Z,4.30
2019-02-08T20:36:10.052Z,4.40
2019-02-08T20:38:41.185Z,4.30
2019-02-08T20:41:12.120Z,4.10
2019-02-08T20:43:43.319Z,4.00
2019-02-08T20:46:14.079Z,3.90
2019-02-08T20:48:44.930Z,4.00
2019-02-08T20:51:16.418Z,4.00
2019-02-08T20:53:47.159Z,4.00
2019-02-08T20:56:19.329Z,4.00
2019-02-08T20:58:51.164Z,3.80
2019-02-08T21:01:22.244Z,3.80
2019-02-08T21:03:54.370Z,3.80
2019-02-08T21:06:25.249Z,3.80
2019-02-08T21:08:56.038Z,3.80
2019-02-08T21:11:27.172Z,3.90
2019-02-08T21:13:59.299Z,3.80
2019-02-08T21:16:30.054Z,3.80
2019-02-08T21:19:02.414Z,3.80
2019-02-08T21:21:33.585Z,3.90
2019-02-08T21:24:05.399Z,3.90
2019-02-08T21:26:36.594Z,3.90
2019-02-08T21:29:08.014Z,3.80
2019-02-08T21:31:41.479Z,3.70
2019-02-08T21:34:13.874Z,3.70
2019-02-08T21:36:46.504Z,3.70
2019-02-08T21:39:18.369Z,3.70
2019-02-08T21:41:50.569Z,3.80
2019-02-08T21:44:23.029Z,3.70
2019-02-08T21:46:55.594Z,3.70
2019-02-08T21:49:26.901Z,3.70
2019-02-08T21:51:57.959Z,3.60
2019-02-08T21:54:29.069Z,3.40
2019-02-08T21:56:59.909Z,3.30
2019-02-08T21:59:31.556Z,3.20
2019-02-08T22:02:02.589Z,3.10
2019-02-08T22:04:33.500Z,3.10
2019-02-08T22:07:04.629Z,3.00
2019-02-08T22:09:35.548Z,2.90
2019-02-08T22:12:06.744Z,2.70
2019-02-08T22:14:37.836Z,2.60
2019-02-08T22:17:08.818Z,2.50
2019-02-08T22:19:39.474Z,2.60
2019-02-08T22:22:10.375Z,2.80
2019-02-08T22:24:41.224Z,2.90
2019-02-08T22:27:11.964Z,2.90
2019-02-08T22:29:42.950Z,2.90
2019-02-08T22:32:13.879Z,3.00
2019-02-08T22:34:44.639Z,3.00
2019-02-08T22:37:15.310Z,3.00
2019-02-08T22:39:46.169Z,3.10
2019-02-08T22:42:16.844Z,3.10
2019-02-08T22:44:47.530Z,3.10
2019-02-08T22:47:18.313Z,3.10
2019-02-08T22:49:49.360Z,3.10
2019-02-08T22:52:20.394Z,3.10
2019-02-08T22:54:51.199Z,3.10
2019-02-08T22:57:22.024Z,3.10
2019-02-08T22:59:53.164Z,3.20
2019-02-08T23:02:24.759Z,3.10
2019-02-08T23:05:15.797Z,3.00
2019-02-08T23:07:46.719Z,2.80
2019-02-08T23:10:17.549Z,2.80
2019-02-08T23:12:48.090Z,2.70
2019-02-08T23:15:18.940Z,2.70
2019-02-08T23:17:49.529Z,2.70
2019-02-08T23:20:20.070Z,2.60
2019-02-08T23:22:50.763Z,2.60
2019-02-08T23:25:21.459Z,2.60
2019-02-08T23:27:52.324Z,2.60
2019-02-08T23:30:23.197Z,2.60
2019-02-08T23:32:53.914Z,2.70
2019-02-08T23:35:24.674Z,2.80
2019-02-08T23:37:55.439Z,2.80
2019-02-08T23:40:26.450Z,2.70
2019-02-08T23:42:57.354Z,2.60
2019-02-08T23:45:28.253Z,2.60
2019-02-08T23:47:59.025Z,2.50
2019-02-08T23:50:29.629Z,2.50
2019-02-08T23:53:00.209Z,2.40
2019-02-08T23:55:30.896Z,2.40
2019-02-08T23:58:01.479Z,2.40
